createdAt,value
2018-09-04T00:00:54.401Z,18.30
2018-09-04T00:03:29.895Z,20.20
2018-09-04T00:06:04.970Z,20.80
2018-09-04T00:08:39.419Z,18.57
2018-09-04T00:11:15.528Z,19.40
2018-09-04T00:13:49.618Z,20.50
2018-09-04T00:16:23.936Z,20.67
2018-09-04T00:18:58.206Z,23.33
2018-09-04T00:21:33.907Z,18.87
2018-09-04T00:24:09.019Z,21.20
2018-09-04T00:26:43.234Z,18.87
2018-09-04T00:29:17.386Z,24.97
2018-09-04T00:31:52.847Z,20.77
2018-09-04T00:34:27.097Z,20.70
2018-09-04T00:37:01.783Z,20.13
2018-09-04T00:39:40.191Z,25.37
2018-09-04T00:42:14.581Z,23.70
2018-09-04T00:44:48.704Z,23.80
2018-09-04T00:47:24.472Z,24.00
2018-09-04T00:49:58.586Z,20.87
2018-09-04T00:52:33.123Z,21.57
2018-09-04T00:55:07.314Z,19.73
2018-09-04T00:57:42.719Z,21.90
2018-09-04T01:00:16.848Z,21.13
2018-09-04T01:02:58.351Z,24.40
2018-09-04T01:05:32.340Z,21.80
2018-09-04T01:08:07.175Z,23.00
2018-09-04T01:10:42.723Z,24.67
2018-09-04T01:13:18.520Z,21.87
2018-09-04T01:15:52.587Z,24.37
2018-09-04T01:18:26.966Z,26.43
2018-09-04T01:21:01.984Z,28.03
2018-09-04T01:23:42.466Z,26.63
2018-09-04T01:26:16.703Z,26.00
2018-09-04T01:28:52.243Z,24.43
2018-09-04T01:31:27.868Z,24.00
2018-09-04T01:34:02.342Z,24.60
2018-09-04T01:36:37.999Z,24.47
2018-09-04T01:39:12.987Z,25.07
2018-09-04T01:41:48.430Z,26.70
2018-09-04T01:44:29.756Z,26.47
2018-09-04T01:47:05.615Z,20.00
2018-09-04T01:49:39.791Z,23.53
2018-09-04T01:52:14.018Z,23.50
2018-09-04T01:54:48.204Z,23.97
2018-09-04T01:57:23.875Z,26.80
2018-09-04T01:59:57.982Z,24.23
2018-09-04T02:02:33.428Z,23.47
2018-09-04T02:05:08.962Z,24.10
2018-09-04T02:07:43.597Z,27.00
2018-09-04T02:10:19.138Z,25.63
2018-09-04T02:12:53.128Z,24.40
2018-09-04T02:15:27.822Z,26.37
2018-09-04T02:18:02.022Z,29.80
2018-09-04T02:20:37.445Z,27.57
2018-09-04T02:23:13.293Z,22.57
2018-09-04T02:25:48.499Z,24.80
2018-09-04T02:28:22.703Z,27.10
2018-09-04T02:31:01.684Z,26.40
2018-09-04T02:33:36.308Z,28.27
2018-09-04T02:36:10.558Z,26.77
2018-09-04T02:38:44.902Z,22.70
2018-09-04T02:41:20.250Z,27.23
2018-09-04T02:43:55.839Z,25.23
2018-09-04T02:46:31.491Z,26.20
2018-09-04T02:49:06.316Z,24.77
2018-09-04T02:51:40.490Z,23.80
2018-09-04T02:54:15.935Z,27.73
2018-09-04T02:56:58.389Z,24.60
2018-09-04T02:59:33.178Z,24.50
2018-09-04T03:02:07.209Z,23.53
2018-09-04T03:04:41.857Z,20.20
2018-09-04T03:07:15.917Z,23.60
2018-09-04T03:10:06.917Z,20.83
2018-09-04T03:12:42.372Z,20.83
2018-09-04T03:15:16.891Z,22.03
2018-09-04T03:17:52.326Z,20.83
2018-09-04T03:20:27.498Z,23.77
2018-09-04T03:23:03.116Z,21.40
2018-09-04T03:25:38.459Z,23.70
2018-09-04T03:28:12.727Z,25.87
2018-09-04T03:30:48.397Z,23.10
2018-09-04T03:33:22.483Z,21.13
2018-09-04T03:35:57.995Z,21.40
2018-09-04T03:38:32.247Z,28.50
2018-09-04T03:41:08.172Z,27.87
2018-09-04T03:43:42.347Z,25.70
2018-09-04T03:46:18.130Z,24.67
2018-09-04T03:48:52.646Z,29.60
2018-09-04T03:51:26.954Z,29.27
2018-09-04T03:54:01.247Z,35.30
2018-09-04T03:56:35.307Z,31.97
2018-09-04T03:59:10.717Z,28.20
2018-09-04T04:01:46.001Z,30.30
2018-09-04T04:04:20.224Z,27.53
2018-09-04T04:06:54.326Z,32.30
2018-09-04T04:09:29.885Z,34.33
2018-09-04T04:12:05.846Z,36.30
2018-09-04T04:14:40.234Z,38.53
2018-09-04T04:17:16.025Z,33.10
2018-09-04T04:19:51.310Z,35.03
2018-09-04T04:22:27.098Z,38.20
2018-09-04T04:25:02.347Z,35.03
2018-09-04T04:27:36.483Z,36.13
2018-09-04T04:30:12.190Z,31.63
2018-09-04T04:32:46.202Z,34.83
2018-09-04T04:35:21.676Z,33.00
2018-09-04T04:37:57.329Z,40.03
2018-09-04T04:40:32.923Z,40.00
2018-09-04T04:43:07.148Z,35.23
2018-09-04T04:45:43.627Z,38.60
2018-09-04T04:48:19.335Z,35.93
2018-09-04T04:50:53.889Z,32.70
2018-09-04T04:53:28.003Z,31.30
2018-09-04T04:56:02.311Z,34.40
2018-09-04T04:58:37.763Z,33.23
2018-09-04T05:01:12.039Z,35.33
2018-09-04T05:03:46.218Z,35.10
2018-09-04T05:06:20.470Z,33.20
2018-09-04T05:08:55.076Z,34.00
2018-09-04T05:11:30.925Z,34.10
2018-09-04T05:14:05.176Z,35.63
2018-09-04T05:16:39.341Z,36.13
2018-09-04T05:19:14.790Z,29.27
2018-09-04T05:21:50.958Z,33.37
2018-09-04T05:24:26.170Z,38.17
2018-09-04T05:27:01.452Z,32.10
2018-09-04T05:29:35.567Z,38.27
2018-09-04T05:32:23.700Z,36.53
2018-09-04T05:35:02.043Z,33.23
2018-09-04T05:37:37.387Z,40.30
2018-09-04T05:40:13.854Z,32.23
2018-09-04T05:42:53.891Z,33.63
2018-09-04T05:45:29.615Z,36.97
2018-09-04T05:48:08.179Z,40.07
2018-09-04T05:50:44.251Z,37.90
2018-09-04T05:53:18.511Z,38.67
2018-09-04T05:55:53.143Z,38.03
2018-09-04T05:58:28.542Z,37.07
2018-09-04T06:01:03.717Z,34.50
2018-09-04T06:03:37.824Z,44.13
2018-09-04T06:06:12.247Z,42.53
2018-09-04T06:08:46.682Z,34.53
2018-09-04T06:11:22.143Z,39.77
2018-09-04T06:13:56.227Z,37.70
2018-09-04T06:16:31.795Z,38.40
2018-09-04T06:19:07.366Z,45.27
2018-09-04T06:21:41.703Z,35.00
2018-09-04T06:24:20.360Z,39.10
2018-09-04T06:26:54.627Z,36.43
2018-09-04T06:29:28.651Z,38.83
2018-09-04T06:32:04.030Z,37.63
2018-09-04T06:34:39.425Z,38.77
2018-09-04T06:37:13.660Z,36.97
2018-09-04T06:39:49.982Z,38.77
2018-09-04T06:42:24.234Z,43.20
2018-09-04T06:44:58.538Z,42.30
2018-09-04T06:47:34.316Z,37.73
2018-09-04T06:50:09.567Z,39.50
2018-09-04T06:52:44.361Z,39.73
2018-09-04T06:55:18.622Z,38.80
2018-09-04T06:57:54.183Z,41.67
2018-09-04T07:00:28.330Z,43.10
2018-09-04T07:03:03.706Z,40.37
2018-09-04T07:05:37.930Z,47.33
2018-09-04T07:08:13.246Z,43.43
2018-09-04T07:10:48.826Z,43.80
2018-09-04T07:13:24.519Z,42.03
2018-09-04T07:15:58.785Z,43.40
2018-09-04T07:18:34.270Z,45.03
2018-09-04T07:21:09.761Z,46.67
2018-09-04T07:23:46.926Z,41.77
2018-09-04T07:26:21.022Z,40.07
2018-09-04T07:28:55.367Z,46.60
2018-09-04T07:31:30.682Z,42.87
2018-09-04T08:19:37.967Z,42.97
2018-09-04T08:31:12.809Z,40.63
2018-09-04T08:36:39.296Z,44.43
2018-09-04T08:48:09.859Z,38.47
2018-09-04T08:56:59.750Z,40.83
2018-09-04T09:35:11.743Z,47.00
2018-09-04T09:52:31.021Z,44.70
2018-09-04T09:55:06.702Z,43.67
2018-09-04T10:00:41.034Z,43.93
2018-09-04T12:27:41.540Z,33.77
2018-09-04T12:30:17.568Z,32.67
2018-09-04T12:32:52.525Z,35.63
2018-09-04T12:35:26.700Z,33.03
2018-09-04T12:38:01.237Z,30.77
2018-09-04T12:40:38.599Z,29.40
2018-09-04T12:43:12.925Z,33.50
2018-09-04T12:45:53.896Z,32.40
2018-09-04T12:48:29.388Z,24.73
2018-09-04T12:51:12.036Z,29.67
2018-09-04T12:53:50.468Z,29.97
2018-09-04T12:56:25.486Z,31.70
2018-09-04T12:59:00.973Z,27.43
2018-09-04T13:01:38.404Z,28.63
2018-09-04T13:04:15.330Z,23.60
2018-09-04T13:06:49.580Z,26.23
2018-09-04T13:09:26.791Z,29.20
2018-09-04T13:12:01.905Z,29.07
2018-09-04T13:14:36.204Z,24.87
2018-09-04T13:17:15.575Z,24.67
2018-09-04T13:19:49.759Z,20.40
2018-09-04T13:22:31.179Z,21.77
2018-09-04T13:25:06.687Z,25.90
2018-09-04T13:27:41.068Z,23.23
2018-09-04T13:30:16.628Z,24.47
2018-09-04T13:32:51.034Z,20.17
2018-09-04T13:35:25.333Z,23.33
2018-09-04T13:37:59.552Z,23.50
2018-09-04T13:40:34.895Z,25.73
2018-09-04T13:43:10.296Z,21.03
2018-09-04T13:45:46.092Z,22.63
2018-09-04T13:48:24.648Z,24.03
2018-09-04T13:50:58.770Z,16.73
2018-09-04T13:53:33.139Z,20.07
2018-09-04T13:56:08.505Z,22.00
2018-09-04T13:58:44.145Z,24.47
2018-09-04T14:01:18.346Z,20.73
2018-09-04T14:03:52.778Z,20.43
2018-09-04T14:06:27.038Z,17.20
2018-09-04T14:09:01.642Z,18.30
2018-09-04T14:11:37.079Z,22.40
2018-09-04T14:14:12.647Z,20.17
2018-09-04T14:16:46.751Z,22.83
2018-09-04T14:19:22.063Z,20.67
2018-09-04T14:21:56.299Z,19.87
2018-09-04T14:24:32.137Z,22.00
2018-09-04T14:27:06.400Z,25.80
2018-09-04T14:29:53.658Z,20.10
2018-09-04T14:32:24.339Z,21.13
2018-09-04T14:34:58.672Z,19.53
2018-09-04T14:37:32.947Z,21.57
2018-09-04T14:40:08.475Z,21.93
2018-09-04T14:42:42.695Z,20.47
2018-09-04T14:45:16.882Z,22.00
2018-09-04T14:47:52.448Z,22.20
2018-09-04T14:50:26.685Z,18.60
2018-09-04T14:53:01.901Z,17.10
2018-09-04T14:55:35.979Z,18.23
2018-09-04T14:58:11.480Z,20.27
2018-09-04T15:00:46.967Z,18.63
2018-09-04T15:03:23.813Z,22.30
2018-09-04T15:05:58.266Z,21.00
2018-09-04T15:08:34.219Z,21.37
2018-09-04T15:11:15.486Z,24.53
2018-09-04T15:13:50.096Z,19.77
2018-09-04T15:16:26.507Z,21.87
2018-09-04T15:19:02.303Z,20.87
2018-09-04T15:21:36.682Z,24.17
2018-09-04T15:24:12.505Z,21.80
2018-09-04T15:26:46.767Z,21.17
2018-09-04T15:29:21.136Z,20.70
2018-09-04T15:31:56.437Z,18.33
2018-09-04T15:34:30.762Z,22.30
2018-09-04T15:37:06.303Z,19.40
2018-09-04T15:39:40.548Z,24.63
2018-09-04T15:42:14.686Z,20.83
2018-09-04T15:44:48.791Z,23.80
2018-09-04T15:47:24.340Z,22.87
2018-09-04T15:49:58.554Z,20.90
2018-09-04T15:52:34.031Z,22.70
2018-09-04T15:55:08.334Z,20.67
2018-09-04T15:57:44.080Z,22.77
2018-09-04T16:00:18.416Z,18.93
2018-09-04T16:02:53.970Z,22.53
2018-09-04T16:05:28.303Z,25.97
2018-09-04T16:08:03.578Z,22.37
2018-09-04T16:10:49.338Z,21.00
2018-09-04T16:13:24.747Z,23.87
2018-09-04T16:15:58.958Z,21.83
2018-09-04T16:18:34.350Z,22.70
2018-09-04T16:21:08.555Z,24.33
2018-09-04T16:23:47.539Z,24.03
2018-09-04T16:26:21.806Z,25.43
2018-09-04T16:28:57.403Z,24.47
2018-09-04T16:31:32.871Z,24.57
2018-09-04T16:34:06.977Z,26.60
2018-09-04T16:36:41.375Z,31.13
2018-09-04T16:39:16.742Z,23.47
2018-09-04T16:41:51.139Z,22.53
2018-09-04T16:44:25.348Z,22.23
2018-09-04T16:47:00.623Z,24.37
2018-09-04T16:49:36.447Z,21.23
2018-09-04T16:52:21.588Z,21.33
2018-09-04T16:54:56.595Z,22.63
2018-09-04T16:57:32.949Z,23.57
2018-09-04T17:00:08.053Z,23.70
2018-09-04T17:02:42.682Z,22.43
2018-09-04T17:05:18.544Z,20.27
2018-09-04T17:07:54.493Z,20.80
2018-09-04T17:10:29.926Z,20.87
2018-09-04T17:13:08.577Z,24.10
2018-09-04T17:15:43.579Z,21.07
2018-09-04T17:18:18.751Z,21.00
2018-09-04T17:20:54.359Z,22.20
2018-09-04T17:23:29.739Z,22.10
2018-09-04T17:26:05.760Z,20.87
2018-09-04T17:28:39.910Z,23.43
2018-09-04T17:31:15.394Z,18.40
2018-09-04T17:33:59.923Z,22.90
2018-09-04T17:36:34.332Z,20.83
2018-09-04T17:39:08.923Z,23.47
2018-09-04T17:41:43.291Z,21.93
2018-09-04T17:44:17.575Z,23.17
2018-09-04T17:46:53.121Z,22.50
2018-09-04T17:49:27.266Z,21.77
2018-09-04T17:52:01.461Z,22.60
2018-09-04T17:54:37.389Z,19.40
2018-09-04T17:57:12.682Z,29.33
2018-09-04T17:59:46.786Z,20.50
2018-09-04T18:02:21.167Z,21.57
2018-09-04T18:04:56.821Z,21.43
2018-09-04T18:07:31.535Z,20.50
2018-09-04T18:10:07.060Z,27.47
2018-09-04T18:12:44.872Z,20.23
2018-09-04T18:15:18.976Z,22.97
2018-09-04T18:17:54.520Z,23.67
2018-09-04T18:20:30.178Z,21.70
2018-09-04T18:23:05.850Z,21.80
2018-09-04T18:25:41.299Z,23.80
2018-09-04T18:28:15.548Z,21.17
2018-09-04T18:30:50.971Z,21.63
2018-09-04T18:33:25.079Z,22.70
2018-09-04T18:35:59.252Z,21.20
2018-09-04T18:38:33.541Z,22.20
2018-09-04T18:41:08.143Z,19.40
2018-09-04T18:43:43.004Z,23.60
2018-09-04T18:46:18.881Z,25.50
2018-09-04T18:48:55.288Z,23.37
2018-09-04T18:51:29.790Z,23.60
2018-09-04T18:54:06.156Z,25.60
2018-09-04T18:56:40.797Z,27.60
2018-09-04T18:59:17.868Z,27.93
2018-09-04T19:01:54.631Z,26.33
2018-09-04T19:04:30.039Z,30.00
2018-09-04T19:07:08.056Z,24.67
2018-09-04T19:09:44.572Z,26.30
2018-09-04T19:12:21.706Z,24.27
2018-09-04T19:14:57.531Z,22.53
2018-09-04T19:17:34.472Z,25.90
2018-09-04T19:20:08.962Z,23.90
2018-09-04T19:22:45.921Z,27.70
2018-09-04T19:25:22.950Z,28.70
2018-09-04T19:27:57.977Z,26.93
2018-09-04T19:30:33.811Z,26.90
2018-09-04T19:33:10.544Z,30.67
2018-09-04T19:35:45.192Z,32.97
2018-09-04T19:38:20.145Z,27.60
2018-09-04T19:40:54.404Z,23.53
2018-09-04T19:43:29.251Z,38.20
2018-09-04T19:46:04.756Z,27.10
2018-09-04T19:48:39.811Z,28.00
2018-09-04T19:51:14.100Z,25.63
2018-09-04T19:53:49.758Z,26.07
2018-09-04T19:56:24.071Z,27.73
2018-09-04T19:58:59.843Z,26.07
2018-09-04T20:01:36.521Z,27.07
2018-09-04T20:04:11.360Z,29.83
2018-09-04T20:06:45.488Z,27.53
2018-09-04T20:09:29.510Z,26.97
2018-09-04T20:12:04.924Z,25.37
2018-09-04T20:14:41.236Z,24.60
2018-09-04T20:17:17.071Z,30.70
2018-09-04T20:19:51.664Z,27.60
2018-09-04T20:22:25.743Z,24.13
2018-09-04T20:25:00.963Z,26.20
2018-09-04T20:27:34.962Z,26.53
2018-09-04T20:30:10.744Z,30.83
2018-09-04T20:32:46.479Z,28.47
2018-09-04T20:35:21.112Z,29.60
2018-09-04T20:37:55.286Z,27.10
2018-09-04T20:40:30.579Z,27.23
2018-09-04T20:43:06.126Z,26.50
2018-09-04T20:45:46.379Z,31.70
2018-09-04T20:48:20.695Z,27.00
2018-09-04T20:50:54.841Z,28.97
2018-09-04T20:53:29.243Z,28.10
2018-09-04T20:56:04.881Z,30.70
2018-09-04T20:58:46.512Z,27.53
2018-09-04T21:01:26.587Z,29.27
2018-09-04T21:04:06.566Z,29.00
2018-09-04T21:06:43.468Z,29.50
2018-09-04T21:09:34.071Z,27.23
2018-09-04T21:12:09.799Z,29.07
2018-09-04T21:14:48.386Z,37.07
2018-09-04T21:17:24.492Z,35.17
2018-09-04T21:19:59.011Z,30.23
2018-09-04T21:22:43.787Z,35.73
2018-09-04T21:25:19.129Z,29.70
2018-09-04T21:27:53.579Z,28.97
2018-09-04T21:30:30.720Z,30.40
2018-09-04T21:33:15.061Z,30.20
2018-09-04T21:35:50.097Z,27.33
2018-09-04T21:38:24.672Z,27.87
2018-09-04T21:40:59.090Z,32.60
2018-09-04T21:43:33.391Z,28.23
2018-09-04T21:46:09.889Z,27.33
2018-09-04T21:48:44.391Z,34.40
2018-09-04T21:51:20.711Z,29.13
2018-09-04T21:53:55.975Z,29.00
2018-09-04T21:56:30.494Z,27.50
2018-09-04T21:59:06.770Z,30.40
2018-09-04T22:01:42.807Z,28.83
2018-09-04T22:04:17.458Z,31.03
2018-09-04T22:06:51.926Z,34.63
2018-09-04T22:09:29.342Z,31.77
2018-09-04T22:12:05.443Z,28.50
2018-09-04T22:14:41.624Z,31.30
2018-09-04T22:17:17.652Z,32.13
2018-09-04T22:19:53.007Z,29.47
2018-09-04T22:22:27.067Z,27.00
2018-09-04T22:25:02.648Z,28.90
2018-09-04T22:27:37.092Z,27.13
2018-09-04T22:30:16.934Z,27.23
2018-09-04T22:32:53.147Z,29.00
2018-09-04T22:35:28.107Z,30.37
2018-09-04T22:38:03.386Z,28.10
2018-09-04T22:40:38.355Z,29.63
2018-09-04T22:43:13.222Z,29.80
2018-09-04T22:45:48.595Z,29.30
2018-09-04T22:48:23.837Z,32.37
2018-09-04T22:51:05.915Z,28.50
2018-09-04T22:53:43.863Z,31.23
2018-09-04T22:56:18.820Z,27.87
2018-09-04T22:58:54.438Z,28.70
2018-09-04T23:01:29.155Z,26.03
2018-09-04T23:04:04.595Z,28.97
2018-09-04T23:06:39.172Z,26.93
2018-09-04T23:09:14.155Z,26.90
2018-09-04T23:11:49.754Z,30.67
2018-09-04T23:14:24.844Z,26.80
2018-09-04T23:17:02.170Z,28.07
2018-09-04T23:19:37.979Z,26.43
2018-09-04T23:22:12.494Z,30.57
2018-09-04T23:24:47.935Z,29.63
2018-09-04T23:27:22.970Z,28.30
2018-09-04T23:29:59.011Z,28.60
2018-09-04T23:32:35.297Z,29.10
2018-09-04T23:35:10.395Z,29.60
2018-09-04T23:37:44.447Z,25.80
2018-09-04T23:40:19.015Z,29.77
2018-09-04T23:42:54.144Z,27.90
2018-09-04T23:45:30.267Z,28.30
2018-09-04T23:48:06.134Z,30.87
2018-09-04T23:50:42.149Z,28.27
2018-09-04T23:53:16.359Z,26.50
2018-09-04T23:55:51.514Z,24.70
2018-09-04T23:58:27.093Z,27.13
